Parry Sound, Canada
Current Conditions -  °F | °C
As of 4:00 AM on Sunday 23 Nov 2014 (Local Time) from CYQA Reporting Station
Light Rain Light Rain  
Wind Chill:   Ceiling: 200
Heat Index:   Visibility: 0.25mi
Dew Point:   Wind: 6mph
Humidity: 100%   Direction: 190°S
Pressure: 29.88"   Gusts: NA
Location:  45.34°N, 80.04°W
Report Text: CYQA 230900Z AUTO 19005KT 1/4SM -RA FG VV002 03/03 A2988 RMK PCPN 1.5MM PAST HR SLP129
Loading
Personal Weather Stations






























Interactive Weather Map New forecast layout! Learn more

10-Day Weather Forecast

Advertisements
Track Severe Weather on mobile